sensor_id;sensor_type;location;lat;lon;timestamp;temperature;humidity
18712;DHT22;9485;49.386;8.674;2024-02-16T00:01:34;17.70;94.30
18712;DHT22;9485;49.386;8.674;2024-02-16T00:06:56;17.60;94.40
18712;DHT22;9485;49.386;8.674;2024-02-16T00:12:17;17.40;94.10
18712;DHT22;9485;49.386;8.674;2024-02-16T00:17:38;17.30;94.40
18712;DHT22;9485;49.386;8.674;2024-02-16T00:23:00;17.20;94.50
18712;DHT22;9485;49.386;8.674;2024-02-16T00:28:20;17.10;94.40
18712;DHT22;9485;49.386;8.674;2024-02-16T00:33:41;17.00;94.70
18712;DHT22;9485;49.386;8.674;2024-02-16T00:39:03;16.90;94.80
18712;DHT22;9485;49.386;8.674;2024-02-16T00:44:23;16.80;94.60
18712;DHT22;9485;49.386;8.674;2024-02-16T00:49:43;16.70;94.70
18712;DHT22;9485;49.386;8.674;2024-02-16T00:55:06;16.60;94.90
18712;DHT22;9485;49.386;8.674;2024-02-16T01:00:27;16.50;94.90
18712;DHT22;9485;49.386;8.674;2024-02-16T01:05:48;16.40;95.10
18712;DHT22;9485;49.386;8.674;2024-02-16T01:11:10;16.30;95.10
18712;DHT22;9485;49.386;8.674;2024-02-16T01:16:30;16.30;95.00
18712;DHT22;9485;49.386;8.674;2024-02-16T01:21:51;16.20;95.20
18712;DHT22;9485;49.386;8.674;2024-02-16T01:27:17;16.10;95.30
18712;DHT22;9485;49.386;8.674;2024-02-16T01:32:38;16.10;95.30
18712;DHT22;9485;49.386;8.674;2024-02-16T01:37:59;16.00;95.50
18712;DHT22;9485;49.386;8.674;2024-02-16T01:43:22;15.90;95.60
18712;DHT22;9485;49.386;8.674;2024-02-16T01:48:42;15.90;95.60
18712;DHT22;9485;49.386;8.674;2024-02-16T01:54:03;15.90;95.80
18712;DHT22;9485;49.386;8.674;2024-02-16T01:59:25;15.80;95.80
18712;DHT22;9485;49.386;8.674;2024-02-16T02:04:47;15.80;95.70
18712;DHT22;9485;49.386;8.674;2024-02-16T02:10:08;15.80;96.00
18712;DHT22;9485;49.386;8.674;2024-02-16T02:15:32;15.80;96.00
18712;DHT22;9485;49.386;8.674;2024-02-16T02:20:53;15.70;95.80
18712;DHT22;9485;49.386;8.674;2024-02-16T02:26:15;15.70;96.20
18712;DHT22;9485;49.386;8.674;2024-02-16T02:31:36;15.70;96.00
18712;DHT22;9485;49.386;8.674;2024-02-16T02:36:57;15.60;96.10
18712;DHT22;9485;49.386;8.674;2024-02-16T02:42:19;15.60;96.10
18712;DHT22;9485;49.386;8.674;2024-02-16T02:47:40;15.50;96.00
18712;DHT22;9485;49.386;8.674;2024-02-16T02:53:00;15.50;96.20
18712;DHT22;9485;49.386;8.674;2024-02-16T02:58:22;15.50;96.20
18712;DHT22;9485;49.386;8.674;2024-02-16T03:03:43;15.40;96.00
18712;DHT22;9485;49.386;8.674;2024-02-16T03:09:04;15.30;96.20
18712;DHT22;9485;49.386;8.674;2024-02-16T03:14:25;15.40;96.20
18712;DHT22;9485;49.386;8.674;2024-02-16T03:19:46;15.30;96.10
18712;DHT22;9485;49.386;8.674;2024-02-16T03:25:07;15.20;96.30
18712;DHT22;9485;49.386;8.674;2024-02-16T03:30:29;15.20;96.40
18712;DHT22;9485;49.386;8.674;2024-02-16T03:35:50;15.10;96.30
18712;DHT22;9485;49.386;8.674;2024-02-16T03:41:13;15.10;96.40
18712;DHT22;9485;49.386;8.674;2024-02-16T03:46:36;15.00;96.30
18712;DHT22;9485;49.386;8.674;2024-02-16T03:51:57;15.00;96.50
18712;DHT22;9485;49.386;8.674;2024-02-16T03:57:17;14.90;96.50
18712;DHT22;9485;49.386;8.674;2024-02-16T04:02:40;14.90;96.40
18712;DHT22;9485;49.386;8.674;2024-02-16T04:08:00;14.80;96.40
18712;DHT22;9485;49.386;8.674;2024-02-16T04:13:23;14.80;96.70
18712;DHT22;9485;49.386;8.674;2024-02-16T04:18:45;14.80;96.80
18712;DHT22;9485;49.386;8.674;2024-02-16T04:24:06;14.80;96.90
18712;DHT22;9485;49.386;8.674;2024-02-16T04:29:27;14.80;97.00
18712;DHT22;9485;49.386;8.674;2024-02-16T04:34:49;14.80;97.00
18712;DHT22;9485;49.386;8.674;2024-02-16T04:40:11;14.80;96.80
18712;DHT22;9485;49.386;8.674;2024-02-16T04:45:32;14.70;96.60
18712;DHT22;9485;49.386;8.674;2024-02-16T04:50:55;14.60;96.50
18712;DHT22;9485;49.386;8.674;2024-02-16T04:56:16;14.50;96.30
18712;DHT22;9485;49.386;8.674;2024-02-16T05:01:36;14.40;96.40
18712;DHT22;9485;49.386;8.674;2024-02-16T05:06:58;14.40;96.50
18712;DHT22;9485;49.386;8.674;2024-02-16T05:12:19;14.30;96.40
18712;DHT22;9485;49.386;8.674;2024-02-16T05:17:40;14.20;96.60
18712;DHT22;9485;49.386;8.674;2024-02-16T05:23:02;14.20;96.90
18712;DHT22;9485;49.386;8.674;2024-02-16T05:28:23;14.20;97.10
18712;DHT22;9485;49.386;8.674;2024-02-16T05:33:44;14.20;97.20
18712;DHT22;9485;49.386;8.674;2024-02-16T05:39:09;14.20;97.30
18712;DHT22;9485;49.386;8.674;2024-02-16T05:44:39;14.20;97.20
18712;DHT22;9485;49.386;8.674;2024-02-16T05:50:00;14.20;97.30
18712;DHT22;9485;49.386;8.674;2024-02-16T05:55:22;14.20;97.30
18712;DHT22;9485;49.386;8.674;2024-02-16T06:00:43;14.20;97.10
18712;DHT22;9485;49.386;8.674;2024-02-16T06:06:06;14.20;97.20
18712;DHT22;9485;49.386;8.674;2024-02-16T06:11:28;14.20;97.30
18712;DHT22;9485;49.386;8.674;2024-02-16T06:16:49;14.20;97.30
18712;DHT22;9485;49.386;8.674;2024-02-16T06:22:09;14.30;97.40
18712;DHT22;9485;49.386;8.674;2024-02-16T06:27:32;14.20;97.20
18712;DHT22;9485;49.386;8.674;2024-02-16T06:32:53;14.30;98.00
18712;DHT22;9485;49.386;8.674;2024-02-16T06:38:13;14.30;98.20
18712;DHT22;9485;49.386;8.674;2024-02-16T06:43:35;14.50;98.40
18712;DHT22;9485;49.386;8.674;2024-02-16T06:48:56;14.60;98.40
18712;DHT22;9485;49.386;8.674;2024-02-16T06:54:17;14.80;98.50
18712;DHT22;9485;49.386;8.674;2024-02-16T06:59:39;14.90;98.50
18712;DHT22;9485;49.386;8.674;2024-02-16T07:04:59;15.10;98.30
18712;DHT22;9485;49.386;8.674;2024-02-16T07:10:20;15.20;98.30
18712;DHT22;9485;49.386;8.674;2024-02-16T07:15:42;15.30;98.20
18712;DHT22;9485;49.386;8.674;2024-02-16T07:21:03;15.40;98.10
18712;DHT22;9485;49.386;8.674;2024-02-16T07:26:25;15.50;98.30
18712;DHT22;9485;49.386;8.674;2024-02-16T07:31:47;15.60;98.40
18712;DHT22;9485;49.386;8.674;2024-02-16T07:37:08;15.80;98.70
18712;DHT22;9485;49.386;8.674;2024-02-16T07:42:29;16.00;98.90
18712;DHT22;9485;49.386;8.674;2024-02-16T07:47:51;16.30;99.10
18712;DHT22;9485;49.386;8.674;2024-02-16T07:53:12;16.60;98.90
18712;DHT22;9485;49.386;8.674;2024-02-16T07:58:33;16.80;98.90
18712;DHT22;9485;49.386;8.674;2024-02-16T08:03:54;17.10;98.70
18712;DHT22;9485;49.386;8.674;2024-02-16T08:09:15;17.40;98.20
18712;DHT22;9485;49.386;8.674;2024-02-16T08:14:35;17.50;98.20
18712;DHT22;9485;49.386;8.674;2024-02-16T08:19:59;17.70;97.20
18712;DHT22;9485;49.386;8.674;2024-02-16T08:25:20;17.70;95.70
18712;DHT22;9485;49.386;8.674;2024-02-16T08:30:41;17.60;95.70
18712;DHT22;9485;49.386;8.674;2024-02-16T08:36:07;17.50;96.00
18712;DHT22;9485;49.386;8.674;2024-02-16T08:41:28;17.40;95.80
18712;DHT22;9485;49.386;8.674;2024-02-16T08:46:48;17.40;96.80
18712;DHT22;9485;49.386;8.674;2024-02-16T08:52:11;17.40;97.00
18712;DHT22;9485;49.386;8.674;2024-02-16T08:57:31;17.40;96.80
18712;DHT22;9485;49.386;8.674;2024-02-16T09:02:52;17.50;97.00
18712;DHT22;9485;49.386;8.674;2024-02-16T09:08:15;17.50;97.00
18712;DHT22;9485;49.386;8.674;2024-02-16T09:13:39;17.60;96.70
18712;DHT22;9485;49.386;8.674;2024-02-16T09:19:02;17.70;97.10
18712;DHT22;9485;49.386;8.674;2024-02-16T09:24:24;17.80;96.80
18712;DHT22;9485;49.386;8.674;2024-02-16T09:29:48;17.90;97.30
18712;DHT22;9485;49.386;8.674;2024-02-16T09:35:14;18.10;97.40
18712;DHT22;9485;49.386;8.674;2024-02-16T09:40:37;18.40;97.10
18712;DHT22;9485;49.386;8.674;2024-02-16T09:45:58;18.40;96.40
18712;DHT22;9485;49.386;8.674;2024-02-16T09:51:20;18.50;96.40
18712;DHT22;9485;49.386;8.674;2024-02-16T09:56:42;18.60;97.00
18712;DHT22;9485;49.386;8.674;2024-02-16T10:02:04;18.90;97.90
18712;DHT22;9485;49.386;8.674;2024-02-16T10:07:32;19.30;97.90
18712;DHT22;9485;49.386;8.674;2024-02-16T10:13:02;19.60;95.70
18712;DHT22;9485;49.386;8.674;2024-02-16T10:18:27;19.70;95.50
18712;DHT22;9485;49.386;8.674;2024-02-16T10:23:56;20.00;97.00
18712;DHT22;9485;49.386;8.674;2024-02-16T10:29:21;20.70;98.60
18712;DHT22;9485;49.386;8.674;2024-02-16T10:34:45;21.60;99.40
18712;DHT22;9485;49.386;8.674;2024-02-16T10:40:10;22.50;98.10
18712;DHT22;9485;49.386;8.674;2024-02-16T10:45:36;23.10;96.40
18712;DHT22;9485;49.386;8.674;2024-02-16T10:50:57;23.50;95.30
18712;DHT22;9485;49.386;8.674;2024-02-16T10:56:27;23.90;95.10
18712;DHT22;9485;49.386;8.674;2024-02-16T11:01:59;24.20;92.10
18712;DHT22;9485;49.386;8.674;2024-02-16T11:07:20;24.40;91.10
18712;DHT22;9485;49.386;8.674;2024-02-16T11:12:44;24.20;91.40
18712;DHT22;9485;49.386;8.674;2024-02-16T11:18:06;23.90;90.00
18712;DHT22;9485;49.386;8.674;2024-02-16T11:23:27;23.50;90.50
18712;DHT22;9485;49.386;8.674;2024-02-16T11:28:49;23.20;91.20
18712;DHT22;9485;49.386;8.674;2024-02-16T11:34:21;23.00;91.80
18712;DHT22;9485;49.386;8.674;2024-02-16T11:39:42;23.00;91.10
18712;DHT22;9485;49.386;8.674;2024-02-16T11:45:06;23.50;93.90
18712;DHT22;9485;49.386;8.674;2024-02-16T11:50:31;24.00;93.50
18712;DHT22;9485;49.386;8.674;2024-02-16T11:55:52;24.40;92.30
18712;DHT22;9485;49.386;8.674;2024-02-16T12:01:13;24.60;92.10
18712;DHT22;9485;49.386;8.674;2024-02-16T12:06:35;24.60;91.50
18712;DHT22;9485;49.386;8.674;2024-02-16T12:11:55;24.50;90.50
18712;DHT22;9485;49.386;8.674;2024-02-16T12:17:16;24.20;90.70
18712;DHT22;9485;49.386;8.674;2024-02-16T12:22:38;24.00;90.60
18712;DHT22;9485;49.386;8.674;2024-02-16T12:27:58;23.70;90.20
18712;DHT22;9485;49.386;8.674;2024-02-16T12:33:19;23.50;90.70
18712;DHT22;9485;49.386;8.674;2024-02-16T12:38:42;23.40;91.00
18712;DHT22;9485;49.386;8.674;2024-02-16T12:44:02;23.20;90.60
18712;DHT22;9485;49.386;8.674;2024-02-16T12:49:23;23.20;91.10
18712;DHT22;9485;49.386;8.674;2024-02-16T12:54:46;23.10;91.10
18712;DHT22;9485;49.386;8.674;2024-02-16T13:00:07;23.10;90.60
18712;DHT22;9485;49.386;8.674;2024-02-16T13:05:28;23.00;91.00
18712;DHT22;9485;49.386;8.674;2024-02-16T13:10:52;22.90;91.60
18712;DHT22;9485;49.386;8.674;2024-02-16T13:16:13;22.90;91.10
18712;DHT22;9485;49.386;8.674;2024-02-16T13:21:34;22.80;91.30
18712;DHT22;9485;49.386;8.674;2024-02-16T13:26:56;22.80;91.50
18712;DHT22;9485;49.386;8.674;2024-02-16T13:32:16;22.70;91.50
18712;DHT22;9485;49.386;8.674;2024-02-16T13:37:37;22.70;92.10
18712;DHT22;9485;49.386;8.674;2024-02-16T13:43:01;22.70;92.10
18712;DHT22;9485;49.386;8.674;2024-02-16T13:48:22;22.70;91.50
18712;DHT22;9485;49.386;8.674;2024-02-16T13:53:43;22.70;92.10
18712;DHT22;9485;49.386;8.674;2024-02-16T13:59:05;22.60;91.90
18712;DHT22;9485;49.386;8.674;2024-02-16T14:04:27;22.60;91.70
18712;DHT22;9485;49.386;8.674;2024-02-16T14:09:48;22.50;91.80
18712;DHT22;9485;49.386;8.674;2024-02-16T14:15:11;22.40;91.80
18712;DHT22;9485;49.386;8.674;2024-02-16T14:20:34;22.20;91.50
18712;DHT22;9485;49.386;8.674;2024-02-16T14:25:55;22.20;91.90
18712;DHT22;9485;49.386;8.674;2024-02-16T14:31:17;22.10;91.80
18712;DHT22;9485;49.386;8.674;2024-02-16T14:36:39;21.90;91.50
18712;DHT22;9485;49.386;8.674;2024-02-16T14:41:59;21.90;91.80
18712;DHT22;9485;49.386;8.674;2024-02-16T14:47:21;21.70;91.90
18712;DHT22;9485;49.386;8.674;2024-02-16T14:52:42;21.60;91.40
18712;DHT22;9485;49.386;8.674;2024-02-16T14:58:05;21.30;91.70
18712;DHT22;9485;49.386;8.674;2024-02-16T15:03:27;21.30;91.70
18712;DHT22;9485;49.386;8.674;2024-02-16T15:08:51;21.10;91.70
18712;DHT22;9485;49.386;8.674;2024-02-16T15:14:11;20.90;91.80
18712;DHT22;9485;49.386;8.674;2024-02-16T15:19:33;20.80;92.20
18712;DHT22;9485;49.386;8.674;2024-02-16T15:24:54;20.60;92.00
18712;DHT22;9485;49.386;8.674;2024-02-16T15:30:15;20.50;92.50
18712;DHT22;9485;49.386;8.674;2024-02-16T15:35:37;20.40;92.70
18712;DHT22;9485;49.386;8.674;2024-02-16T15:40:59;20.30;92.60
18712;DHT22;9485;49.386;8.674;2024-02-16T15:46:20;20.20;92.90
18712;DHT22;9485;49.386;8.674;2024-02-16T15:51:42;20.10;93.20
18712;DHT22;9485;49.386;8.674;2024-02-16T15:57:02;20.10;93.00
18712;DHT22;9485;49.386;8.674;2024-02-16T16:02:24;20.00;93.10
18712;DHT22;9485;49.386;8.674;2024-02-16T16:07:46;19.80;93.00
18712;DHT22;9485;49.386;8.674;2024-02-16T16:13:07;19.60;92.90
18712;DHT22;9485;49.386;8.674;2024-02-16T16:18:29;19.40;92.70
18712;DHT22;9485;49.386;8.674;2024-02-16T16:23:54;19.10;92.80
18712;DHT22;9485;49.386;8.674;2024-02-16T16:29:15;18.90;93.10
18712;DHT22;9485;49.386;8.674;2024-02-16T16:34:36;18.50;93.60
18712;DHT22;9485;49.386;8.674;2024-02-16T16:39:58;18.20;94.10
18712;DHT22;9485;49.386;8.674;2024-02-16T16:45:19;18.00;94.50
18712;DHT22;9485;49.386;8.674;2024-02-16T16:50:40;17.70;95.00
18712;DHT22;9485;49.386;8.674;2024-02-16T16:56:03;17.60;95.40
18712;DHT22;9485;49.386;8.674;2024-02-16T17:01:24;17.40;95.80
18712;DHT22;9485;49.386;8.674;2024-02-16T17:06:45;17.20;96.30
18712;DHT22;9485;49.386;8.674;2024-02-16T17:12:09;17.10;96.70
18712;DHT22;9485;49.386;8.674;2024-02-16T17:17:29;16.80;97.10
18712;DHT22;9485;49.386;8.674;2024-02-16T17:22:53;16.80;97.70
18712;DHT22;9485;49.386;8.674;2024-02-16T17:28:15;16.70;98.00
18712;DHT22;9485;49.386;8.674;2024-02-16T17:33:36;16.60;98.40
18712;DHT22;9485;49.386;8.674;2024-02-16T17:38:56;16.60;98.70
18712;DHT22;9485;49.386;8.674;2024-02-16T17:44:18;16.50;99.00
18712;DHT22;9485;49.386;8.674;2024-02-16T17:49:39;16.50;99.20
18712;DHT22;9485;49.386;8.674;2024-02-16T17:55:00;16.40;99.40
18712;DHT22;9485;49.386;8.674;2024-02-16T18:00:22;16.40;99.60
18712;DHT22;9485;49.386;8.674;2024-02-16T18:05:43;16.40;99.80
18712;DHT22;9485;49.386;8.674;2024-02-16T18:11:04;16.30;99.90
18712;DHT22;9485;49.386;8.674;2024-02-16T18:16:25;16.30;99.90
18712;DHT22;9485;49.386;8.674;2024-02-16T18:21:47;16.20;99.90
18712;DHT22;9485;49.386;8.674;2024-02-16T18:27:07;16.20;99.90
18712;DHT22;9485;49.386;8.674;2024-02-16T18:32:29;16.20;99.90
18712;DHT22;9485;49.386;8.674;2024-02-16T18:37:50;16.10;99.90
18712;DHT22;9485;49.386;8.674;2024-02-16T18:43:10;16.10;99.90
18712;DHT22;9485;49.386;8.674;2024-02-16T18:48:32;16.10;99.90
18712;DHT22;9485;49.386;8.674;2024-02-16T18:53:52;16.00;99.90
18712;DHT22;9485;49.386;8.674;2024-02-16T18:59:13;16.00;99.90
18712;DHT22;9485;49.386;8.674;2024-02-16T19:04:36;16.00;99.90
18712;DHT22;9485;49.386;8.674;2024-02-16T19:09:57;16.00;99.90
18712;DHT22;9485;49.386;8.674;2024-02-16T19:15:17;15.90;99.90
18712;DHT22;9485;49.386;8.674;2024-02-16T19:20:39;15.90;99.90
18712;DHT22;9485;49.386;8.674;2024-02-16T19:26:01;15.90;99.90
18712;DHT22;9485;49.386;8.674;2024-02-16T19:31:21;15.90;99.90
18712;DHT22;9485;49.386;8.674;2024-02-16T19:36:43;15.90;99.90
18712;DHT22;9485;49.386;8.674;2024-02-16T19:42:04;15.90;99.90
18712;DHT22;9485;49.386;8.674;2024-02-16T19:47:25;15.80;99.90
18712;DHT22;9485;49.386;8.674;2024-02-16T19:52:47;15.80;99.90
18712;DHT22;9485;49.386;8.674;2024-02-16T19:58:08;15.80;99.90
18712;DHT22;9485;49.386;8.674;2024-02-16T20:03:28;15.80;99.90
18712;DHT22;9485;49.386;8.674;2024-02-16T20:08:53;15.80;99.90
18712;DHT22;9485;49.386;8.674;2024-02-16T20:14:16;15.80;99.90
18712;DHT22;9485;49.386;8.674;2024-02-16T20:19:36;15.80;99.90
18712;DHT22;9485;49.386;8.674;2024-02-16T20:24:58;17.90;99.90
18712;DHT22;9485;49.386;8.674;2024-02-16T20:30:19;15.70;99.90
18712;DHT22;9485;49.386;8.674;2024-02-16T20:35:40;15.70;99.90
18712;DHT22;9485;49.386;8.674;2024-02-16T20:41:02;15.70;99.90
18712;DHT22;9485;49.386;8.674;2024-02-16T20:46:24;15.70;99.90
18712;DHT22;9485;49.386;8.674;2024-02-16T20:51:44;15.70;99.90
18712;DHT22;9485;49.386;8.674;2024-02-16T20:57:09;15.70;99.90
18712;DHT22;9485;49.386;8.674;2024-02-16T21:02:29;15.70;99.90
18712;DHT22;9485;49.386;8.674;2024-02-16T21:07:50;15.70;99.90
18712;DHT22;9485;49.386;8.674;2024-02-16T21:13:13;15.70;99.90
18712;DHT22;9485;49.386;8.674;2024-02-16T21:18:35;15.70;99.90
18712;DHT22;9485;49.386;8.674;2024-02-16T21:23:56;15.70;99.90
18712;DHT22;9485;49.386;8.674;2024-02-16T21:29:18;15.70;99.90
18712;DHT22;9485;49.386;8.674;2024-02-16T21:34:39;15.70;99.90
18712;DHT22;9485;49.386;8.674;2024-02-16T21:40:00;15.70;99.90
18712;DHT22;9485;49.386;8.674;2024-02-16T21:45:22;15.70;99.90
18712;DHT22;9485;49.386;8.674;2024-02-16T21:50:43;15.60;99.90
18712;DHT22;9485;49.386;8.674;2024-02-16T21:56:05;15.60;99.90
18712;DHT22;9485;49.386;8.674;2024-02-16T22:01:28;15.70;99.90
18712;DHT22;9485;49.386;8.674;2024-02-16T22:06:50;15.70;99.90
18712;DHT22;9485;49.386;8.674;2024-02-16T22:12:12;15.70;99.90
18712;DHT22;9485;49.386;8.674;2024-02-16T22:17:34;15.60;99.90
18712;DHT22;9485;49.386;8.674;2024-02-16T22:22:55;15.70;99.90
18712;DHT22;9485;49.386;8.674;2024-02-16T22:28:15;15.70;99.90
18712;DHT22;9485;49.386;8.674;2024-02-16T22:33:39;15.70;99.90
18712;DHT22;9485;49.386;8.674;2024-02-16T22:38:59;15.70;99.90
18712;DHT22;9485;49.386;8.674;2024-02-16T22:44:20;15.70;99.90
18712;DHT22;9485;49.386;8.674;2024-02-16T22:49:42;15.70;99.90
18712;DHT22;9485;49.386;8.674;2024-02-16T22:55:02;15.70;99.90
18712;DHT22;9485;49.386;8.674;2024-02-16T23:00:23;15.60;99.90
18712;DHT22;9485;49.386;8.674;2024-02-16T23:05:46;15.60;99.90
18712;DHT22;9485;49.386;8.674;2024-02-16T23:11:07;15.70;99.90
18712;DHT22;9485;49.386;8.674;2024-02-16T23:16:28;15.60;99.90
18712;DHT22;9485;49.386;8.674;2024-02-16T23:21:50;15.60;99.90
18712;DHT22;9485;49.386;8.674;2024-02-16T23:27:11;15.70;99.90
18712;DHT22;9485;49.386;8.674;2024-02-16T23:32:32;15.70;99.90
18712;DHT22;9485;49.386;8.674;2024-02-16T23:37:54;15.70;99.90
18712;DHT22;9485;49.386;8.674;2024-02-16T23:43:14;15.70;99.90
18712;DHT22;9485;49.386;8.674;2024-02-16T23:48:35;15.70;99.90
18712;DHT22;9485;49.386;8.674;2024-02-16T23:53:57;15.70;99.90
18712;DHT22;9485;49.386;8.674;2024-02-16T23:59:17;15.60;99.90
